Time;durP1;ratioP1;P1;durP2;ratioP2;P2;SDS_P1;SDS_P2;PMS_P1;PMS_P2;Temp;Humidity;BMP_temperature;BMP_pressure;BME280_temperature;BME280_humidity;BME280_pressure;Samples;Min_cycle;Max_cycle;Signal;HPM_P1;HPM_P2
2023/02/26 00:01:42;;;;;;;2.10;1.10;;;;;;;16.45;39.96;99012.75;5074655;28;20036;-68
2023/02/26 00:04:11;;;;;;;1.75;1.08;;;;;;;16.42;40.00;99007.72;5074218;28;20070;-67
2023/02/26 00:06:51;;;;;;;1.90;1.10;;;;;;;16.39;39.87;99000.78;5074441;28;20131;-66
2023/02/26 00:09:21;;;;;;;3.03;1.25;;;;;;;16.36;40.02;99001.09;5074241;28;20045;-67
2023/02/26 00:11:51;;;;;;;2.20;1.23;;;;;;;16.31;40.13;99003.44;5074250;28;20381;-66
2023/02/26 00:14:20;;;;;;;1.73;1.08;;;;;;;16.30;40.18;99001.72;5074027;28;20048;-66
2023/02/26 00:16:54;;;;;;;1.73;0.98;;;;;;;16.28;40.09;99015.34;5074077;28;20392;-67
2023/02/26 00:19:23;;;;;;;1.65;1.00;;;;;;;16.25;40.10;98996.00;5074103;28;20048;-66
2023/02/26 00:21:53;;;;;;;1.75;1.10;;;;;;;16.23;40.21;99011.47;5074081;28;20127;-66
2023/02/26 00:24:21;;;;;;;1.50;0.98;;;;;;;16.20;40.18;99033.28;5077933;28;20557;-66
2023/02/26 00:26:50;;;;;;;1.48;1.10;;;;;;;16.18;40.24;99029.91;5081053;28;20401;-65
2023/02/26 00:29:19;;;;;;;2.38;1.17;;;;;;;16.14;40.27;99012.41;5073941;28;20052;-66
2023/02/26 00:31:47;;;;;;;1.85;1.30;;;;;;;16.13;40.38;98994.59;5057736;28;20455;-65
2023/02/26 00:34:16;;;;;;;2.13;1.05;;;;;;;16.08;40.30;98964.59;5073721;28;20439;-65
2023/02/26 00:36:53;;;;;;;1.55;1.05;;;;;;;16.09;40.20;98961.75;5073537;28;20045;-66
2023/02/26 00:39:35;;;;;;;2.33;1.20;;;;;;;16.06;40.26;98972.00;5073533;28;20492;-66
2023/02/26 00:42:05;;;;;;;1.85;1.17;;;;;;;16.02;40.22;98976.84;5073682;28;20111;-66
2023/02/26 00:44:34;;;;;;;2.08;1.25;;;;;;;16.01;40.19;98991.28;5073638;28;20047;-66
2023/02/26 00:47:09;;;;;;;2.20;1.27;;;;;;;15.97;40.26;98995.31;5073756;28;20378;-67
2023/02/26 00:49:49;;;;;;;1.77;1.20;;;;;;;15.95;40.19;98998.16;5073450;28;20055;-65
2023/02/26 00:52:28;;;;;;;2.05;1.17;;;;;;;15.89;40.24;98982.63;5073491;28;20045;-65
2023/02/26 00:54:56;;;;;;;1.45;1.08;;;;;;;15.90;40.25;98981.63;5073336;28;20049;-66
2023/02/26 00:57:26;;;;;;;2.05;1.10;;;;;;;15.86;40.28;98985.66;5073475;28;20079;-66
2023/02/26 00:59:54;;;;;;;2.67;1.45;;;;;;;15.84;40.22;99003.78;5073288;28;20496;-66
2023/02/26 01:02:24;;;;;;;2.03;1.30;;;;;;;15.82;40.27;99003.06;5073049;28;20699;-66
2023/02/26 01:04:53;;;;;;;1.65;1.00;;;;;;;15.82;40.16;99012.97;5073121;28;20045;-66
2023/02/26 01:07:23;;;;;;;2.20;1.20;;;;;;;15.79;40.23;99002.56;5073305;28;20083;-66
2023/02/26 01:09:52;;;;;;;2.38;1.33;;;;;;;15.77;40.29;98997.34;5074127;28;20055;-66
2023/02/26 01:12:21;;;;;;;2.25;1.30;;;;;;;15.76;40.24;98998.34;5074953;28;20076;-66
2023/02/26 01:14:51;;;;;;;2.55;1.30;;;;;;;15.74;40.11;99001.19;5072927;28;20128;-65
2023/02/26 01:17:25;;;;;;;2.22;1.30;;;;;;;15.71;40.18;98997.94;5072904;28;20515;-65
2023/02/26 01:19:56;;;;;;;2.75;1.20;;;;;;;15.70;40.34;99025.81;5073265;28;20052;-65
2023/02/26 01:22:31;;;;;;;2.83;1.15;;;;;;;15.69;40.20;99032.22;5072843;28;20056;-64
2023/02/26 01:25:05;;;;;;;2.75;1.40;;;;;;;15.66;40.21;99029.84;5072954;28;20040;-65
2023/02/26 01:27:33;;;;;;;1.85;1.20;;;;;;;15.63;40.47;99014.88;5072629;28;20059;-67
2023/02/26 01:30:06;;;;;;;2.08;1.38;;;;;;;15.61;40.24;99016.00;5072618;28;20123;-65
2023/02/26 01:32:43;;;;;;;2.15;1.25;;;;;;;15.59;40.17;99012.59;5072649;28;20037;-66
2023/02/26 01:35:27;;;;;;;3.05;1.40;;;;;;;15.57;40.22;99003.84;5072713;28;20393;-66
2023/02/26 01:38:02;;;;;;;2.78;1.30;;;;;;;15.55;40.21;99000.47;5056815;28;20128;-66
2023/02/26 01:41:02;;;;;;;2.25;1.30;;;;;;;15.53;40.18;98997.06;5072251;28;20111;-66
2023/02/26 01:43:36;;;;;;;1.90;1.23;;;;;;;15.51;40.30;98994.53;5070188;28;20053;-66
2023/02/26 01:46:14;;;;;;;1.88;1.10;;;;;;;15.49;40.24;99001.94;5072259;28;20047;-66
2023/02/26 01:48:50;;;;;;;2.60;1.30;;;;;;;15.47;40.16;98998.56;5072312;28;20393;-66
2023/02/26 01:51:19;;;;;;;1.63;1.10;;;;;;;15.44;40.27;98999.72;5072312;28;20040;-66
2023/02/26 01:53:47;;;;;;;2.33;1.20;;;;;;;15.40;40.25;98995.63;5056031;28;20044;-67
2023/02/26 01:56:19;;;;;;;1.75;1.20;;;;;;;15.41;40.23;99000.00;5072210;28;20044;-66
2023/02/26 01:58:49;;;;;;;1.90;1.33;;;;;;;15.39;40.36;99001.16;5071970;28;20132;-66
2023/02/26 02:01:19;;;;;;;2.38;1.33;;;;;;;15.38;40.34;99018.28;5072027;28;20044;-66
2023/02/26 02:03:47;;;;;;;2.40;1.35;;;;;;;15.35;40.28;99035.56;5054837;28;20123;-66
2023/02/26 02:06:19;;;;;;;2.70;1.20;;;;;;;15.35;40.31;99040.09;5071972;28;20036;-67
2023/02/26 02:08:48;;;;;;;2.50;1.30;;;;;;;15.33;40.37;99044.75;5072056;28;20078;-66
2023/02/26 02:11:16;;;;;;;2.33;1.40;;;;;;;15.31;40.44;99052.97;5071803;28;20047;-66
2023/02/26 02:14:00;;;;;;;2.33;1.30;;;;;;;15.28;40.44;99036.31;5055261;28;20040;-66
2023/02/26 02:16:37;;;;;;;2.35;1.15;;;;;;;15.26;40.27;99020.34;5071885;28;20119;-66
2023/02/26 02:19:35;;;;;;;2.45;1.40;;;;;;;15.21;40.32;99005.66;5071896;28;20056;-66
2023/02/26 02:22:20;;;;;;;1.48;1.17;;;;;;;15.21;40.35;99011.03;5032772;28;20072;-66
2023/02/26 02:25:07;;;;;;;2.92;1.58;;;;;;;15.21;40.36;99017.25;5079562;28;20046;-67
2023/02/26 02:27:46;;;;;;;1.95;1.20;;;;;;;15.17;40.54;99024.78;5073001;28;20037;-66
2023/02/26 02:30:35;;;;;;;2.45;1.40;;;;;;;15.17;40.37;99040.06;5071695;28;20044;-66
2023/02/26 02:33:10;;;;;;;2.65;1.40;;;;;;;15.15;40.29;99021.41;5071738;28;20115;-66
2023/02/26 02:35:44;;;;;;;2.15;1.25;;;;;;;15.13;40.27;99026.06;5071635;28;20068;-66
2023/02/26 02:38:17;;;;;;;2.13;1.30;;;;;;;15.12;40.30;99036.97;5071412;28;20058;-66
2023/02/26 02:40:49;;;;;;;1.60;1.17;;;;;;;15.09;40.42;99037.28;5071787;28;20388;-66
2023/02/26 02:43:21;;;;;;;2.03;1.30;;;;;;;15.10;40.30;99060.44;5071550;28;20086;-65
2023/02/26 02:45:54;;;;;;;2.70;1.30;;;;;;;15.08;40.38;99046.31;5055614;28;20055;-66
2023/02/26 02:48:27;;;;;;;1.63;1.20;;;;;;;15.06;40.38;99048.31;5071780;28;20094;-66
2023/02/26 02:51:00;;;;;;;2.17;1.38;;;;;;;15.02;40.42;99046.91;5071341;28;20472;-66
2023/02/26 02:53:35;;;;;;;2.35;1.50;;;;;;;15.01;40.40;99048.75;5071451;28;20500;-65
2023/02/26 02:56:07;;;;;;;1.85;1.23;;;;;;;15.00;40.43;99056.97;5071222;28;20044;-67
2023/02/26 02:58:40;;;;;;;2.22;1.35;;;;;;;14.99;40.23;99060.66;5071522;28;20431;-66
2023/02/26 03:01:14;;;;;;;2.45;1.50;;;;;;;14.96;40.34;99063.63;5071492;28;20040;-66
2023/02/26 03:03:52;;;;;;;2.10;1.50;;;;;;;14.94;40.35;99065.59;5071338;28;20063;-66
2023/02/26 03:06:20;;;;;;;2.13;1.27;;;;;;;14.94;40.25;99073.66;5071546;28;20056;-67
2023/02/26 03:08:50;;;;;;;1.98;1.48;;;;;;;14.91;40.40;99087.38;5071473;28;20053;-67
2023/02/26 03:11:21;;;;;;;2.53;1.30;;;;;;;14.89;40.48;99093.75;5071275;28;20405;-66
2023/02/26 03:13:52;;;;;;;2.50;1.30;;;;;;;14.87;40.38;99090.38;5055212;28;20455;-67
2023/02/26 03:16:36;;;;;;;2.15;1.40;;;;;;;14.85;40.39;99086.97;5071259;28;20048;-65
2023/02/26 03:19:15;;;;;;;2.45;1.35;;;;;;;14.86;40.40;99079.75;5071236;28;20110;-67
2023/02/26 03:21:49;;;;;;;2.15;1.30;;;;;;;14.82;40.43;99056.91;5071117;28;20049;-66
2023/02/26 03:24:27;;;;;;;2.75;1.30;;;;;;;14.82;40.41;99079.22;5074887;28;20057;-66
2023/02/26 03:26:59;;;;;;;2.53;1.58;;;;;;;14.81;40.44;99088.28;5078363;28;20098;-67
2023/02/26 03:29:35;;;;;;;2.08;1.35;;;;;;;14.80;40.46;99075.84;5071203;28;20465;-66
2023/02/26 03:32:07;;;;;;;2.00;1.30;;;;;;;14.79;40.48;99084.91;5071166;28;20047;-67
2023/02/26 03:34:42;;;;;;;2.23;1.30;;;;;;;14.77;40.53;99092.25;5071021;28;20044;-67
2023/02/26 03:37:19;;;;;;;3.13;1.40;;;;;;;14.76;40.63;99098.59;5070971;28;20052;-66
2023/02/26 03:39:52;;;;;;;2.45;1.38;;;;;;;14.74;40.62;99097.91;5054938;28;20124;-67
2023/02/26 03:42:26;;;;;;;2.50;1.50;;;;;;;14.75;40.63;99093.38;5071194;28;20049;-67
2023/02/26 03:44:58;;;;;;;1.98;1.30;;;;;;;14.73;40.59;99081.94;5070875;28;20041;-67
2023/02/26 03:47:28;;;;;;;2.30;1.40;;;;;;;14.68;40.66;99079.72;5070944;28;20052;-66
2023/02/26 03:50:03;;;;;;;2.33;1.55;;;;;;;14.70;40.61;99104.56;5071010;28;20055;-67
2023/02/26 03:52:35;;;;;;;2.22;1.45;;;;;;;14.70;40.64;99103.72;5071001;28;20123;-67
2023/02/26 03:55:07;;;;;;;2.70;1.17;;;;;;;14.69;40.62;99110.94;5070891;28;20140;-67
2023/02/26 03:57:35;;;;;;;1.90;1.15;;;;;;;14.68;40.52;99114.59;5070793;28;20436;-67
2023/02/26 04:00:04;;;;;;;2.53;1.60;;;;;;;14.65;40.70;99125.63;5070787;28;20094;-65
2023/02/26 04:02:38;;;;;;;2.63;1.50;;;;;;;14.63;40.39;99122.22;5072836;28;20072;-67
2023/02/26 04:05:13;;;;;;;3.38;1.60;;;;;;;14.64;40.64;99093.56;5075033;28;20098;-65
2023/02/26 04:07:43;;;;;;;2.13;1.40;;;;;;;14.61;40.57;99086.66;5074434;28;20041;-66
2023/02/26 04:10:17;;;;;;;2.13;1.35;;;;;;;14.61;40.57;99092.03;5074332;28;20111;-65
2023/02/26 04:12:46;;;;;;;2.35;1.48;;;;;;;14.59;40.57;99083.28;5074348;28;20052;-67
2023/02/26 04:15:14;;;;;;;2.55;1.60;;;;;;;14.56;40.72;99095.13;5074224;28;20048;-66
2023/02/26 04:17:42;;;;;;;2.08;1.30;;;;;;;14.58;40.84;99100.38;5074117;28;20064;-65
2023/02/26 04:20:12;;;;;;;2.17;1.40;;;;;;;14.56;40.76;99088.91;5074764;28;20041;-65
2023/02/26 04:22:40;;;;;;;2.88;1.60;;;;;;;14.53;40.76;99089.22;5075455;28;20527;-67
2023/02/26 04:25:08;;;;;;;1.85;1.40;;;;;;;14.54;40.85;99109.69;5074242;28;20078;-67
2023/02/26 04:27:37;;;;;;;2.55;1.60;;;;;;;14.52;40.99;99111.69;5073794;28;20076;-67
2023/02/26 04:30:06;;;;;;;2.33;1.48;;;;;;;14.52;40.95;99141.19;5074254;28;20397;-67
2023/02/26 04:32:35;;;;;;;2.05;1.33;;;;;;;14.47;40.76;99148.81;5073850;28;20112;-67
2023/02/26 04:35:03;;;;;;;2.55;1.50;;;;;;;14.48;40.58;99169.31;5073814;28;20075;-66
2023/02/26 04:37:33;;;;;;;2.25;1.60;;;;;;;14.50;40.76;99157.44;5073430;28;20106;-67
2023/02/26 04:40:01;;;;;;;2.47;1.52;;;;;;;14.49;40.93;99147.69;5073690;28;20119;-66
2023/02/26 04:42:30;;;;;;;2.25;1.52;;;;;;;14.54;41.04;99171.41;5073725;28;20064;-67
2023/02/26 04:44:58;;;;;;;2.60;1.52;;;;;;;14.59;41.16;99180.72;5073639;28;20045;-66
2023/02/26 04:47:26;;;;;;;2.90;1.58;;;;;;;14.65;41.20;99173.91;5073980;28;20048;-67
2023/02/26 04:49:54;;;;;;;1.88;1.25;;;;;;;14.76;41.18;99187.16;5073577;28;20048;-67
2023/02/26 04:52:23;;;;;;;2.45;1.40;;;;;;;14.85;41.08;99186.31;5073376;28;20044;-67
2023/02/26 04:54:52;;;;;;;2.72;1.60;;;;;;;14.97;41.12;99183.47;5073415;28;20051;-67
2023/02/26 04:57:20;;;;;;;1.65;1.20;;;;;;;15.06;40.96;99177.22;5073299;28;20044;-67
2023/02/26 04:59:49;;;;;;;2.45;1.40;;;;;;;15.17;40.78;99163.59;5073358;28;20041;-67
2023/02/26 05:02:17;;;;;;;1.80;1.27;;;;;;;15.28;40.69;99174.16;5073226;28;20119;-66
2023/02/26 05:04:46;;;;;;;2.53;1.50;;;;;;;15.39;40.67;99173.97;5073135;28;20051;-67
2023/02/26 05:07:14;;;;;;;2.55;1.40;;;;;;;15.48;40.48;99168.69;5073226;28;20116;-66
2023/02/26 05:09:42;;;;;;;2.38;1.40;;;;;;;15.59;40.59;99168.47;5073172;28;20049;-66
2023/02/26 05:12:12;;;;;;;1.98;1.38;;;;;;;15.69;40.38;99164.78;5073045;28;20116;-66
2023/02/26 05:14:40;;;;;;;2.83;1.50;;;;;;;15.79;40.23;99164.72;5073052;28;20071;-65
2023/02/26 05:17:08;;;;;;;2.90;1.48;;;;;;;15.89;40.29;99181.63;5072762;28;20058;-65
2023/02/26 05:19:36;;;;;;;1.95;1.40;;;;;;;15.99;40.18;99179.69;5072932;28;20056;-65
2023/02/26 05:22:05;;;;;;;2.58;1.67;;;;;;;16.06;40.00;99171.03;5073121;28;20041;-66
2023/02/26 05:24:33;;;;;;;2.38;1.50;;;;;;;16.11;39.90;99172.25;5078434;28;20040;-65
2023/02/26 05:27:02;;;;;;;3.00;1.60;;;;;;;16.16;40.00;99166.44;5078691;28;20046;-65
2023/02/26 05:29:31;;;;;;;1.75;1.30;;;;;;;16.18;39.84;99183.25;5072673;28;20131;-65
2023/02/26 05:32:00;;;;;;;2.53;1.20;;;;;;;16.18;39.97;99189.47;5072609;28;20047;-65
2023/02/26 05:34:29;;;;;;;2.45;1.42;;;;;;;16.20;39.92;99205.47;5072797;28;20040;-65
2023/02/26 05:36:57;;;;;;;2.30;1.30;;;;;;;16.17;40.00;99209.31;5072279;28;20482;-65
2023/02/26 05:39:25;;;;;;;2.30;1.42;;;;;;;16.18;39.92;99212.84;5072425;28;20093;-66
2023/02/26 05:41:54;;;;;;;2.58;1.40;;;;;;;16.15;39.96;99211.31;5072468;28;20076;-64
2023/02/26 05:44:23;;;;;;;2.58;1.40;;;;;;;16.13;39.90;99204.41;5072569;28;20472;-67
2023/02/26 05:46:52;;;;;;;2.47;1.45;;;;;;;16.11;39.95;99209.06;5072893;28;20494;-65
2023/02/26 05:49:20;;;;;;;3.22;1.42;;;;;;;16.05;39.97;99207.84;5073779;28;20040;-65
2023/02/26 05:51:48;;;;;;;2.35;1.40;;;;;;;16.04;39.94;99230.38;5073747;28;20048;-66
2023/02/26 05:54:17;;;;;;;2.00;1.27;;;;;;;16.00;40.01;99234.34;5072690;28;20056;-65
2023/02/26 05:56:45;;;;;;;2.58;1.55;;;;;;;15.97;40.02;99245.41;5072279;28;20326;-65
2023/02/26 05:59:13;;;;;;;2.17;1.45;;;;;;;15.94;40.04;99245.72;5072130;28;20044;-65
2023/02/26 06:01:41;;;;;;;2.10;1.40;;;;;;;15.89;39.96;99246.16;5072384;28;20127;-66
2023/02/26 06:04:11;;;;;;;2.60;1.70;;;;;;;15.88;39.89;99241.78;5071829;28;20052;-66
2023/02/26 06:06:39;;;;;;;1.90;1.35;;;;;;;15.85;39.75;99238.56;5072111;28;20051;-66
2023/02/26 06:09:08;;;;;;;2.67;1.45;;;;;;;15.83;39.87;99252.16;5072033;28;20040;-65
2023/02/26 06:11:38;;;;;;;2.40;1.50;;;;;;;15.80;39.85;99252.44;5071782;28;20044;-65
2023/02/26 06:14:06;;;;;;;2.22;1.55;;;;;;;15.76;39.86;99250.22;5071845;28;20037;-65
2023/02/26 06:16:35;;;;;;;2.35;1.50;;;;;;;15.72;39.68;99255.00;5071778;28;20056;-66
2023/02/26 06:19:03;;;;;;;2.60;1.70;;;;;;;15.69;39.70;99260.69;5071861;28;20048;-65
2023/02/26 06:21:33;;;;;;;2.75;1.60;;;;;;;15.66;39.66;99264.53;5070651;28;20044;-65
2023/02/26 06:24:01;;;;;;;3.00;1.60;;;;;;;15.65;39.80;99275.44;5072605;28;20048;-65
2023/02/26 06:26:29;;;;;;;3.08;1.75;;;;;;;15.62;39.92;99283.78;5082039;28;20044;-65
2023/02/26 06:28:57;;;;;;;3.28;1.63;;;;;;;15.57;39.70;99286.06;5071683;28;20489;-65
2023/02/26 06:31:26;;;;;;;2.15;1.60;;;;;;;15.57;39.81;99288.75;5071817;28;20055;-65
2023/02/26 06:33:54;;;;;;;2.45;1.48;;;;;;;15.53;39.72;99281.94;5071605;28;20045;-65
2023/02/26 06:36:22;;;;;;;2.90;1.58;;;;;;;15.49;39.54;99283.25;5071622;28;20095;-65
2023/02/26 06:38:52;;;;;;;2.63;1.60;;;;;;;15.49;39.66;99280.56;5071331;28;20059;-65
2023/02/26 06:41:20;;;;;;;2.72;1.70;;;;;;;15.46;39.71;99287.94;5071515;28;20040;-65
2023/02/26 06:43:48;;;;;;;2.42;1.63;;;;;;;15.41;39.67;99283.97;5071344;28;20045;-65
2023/02/26 06:46:17;;;;;;;2.78;1.67;;;;;;;15.41;39.54;99290.19;5071504;28;20138;-65
2023/02/26 06:48:45;;;;;;;2.47;1.50;;;;;;;15.40;39.69;99323.44;5071833;28;20041;-66
2023/02/26 06:51:14;;;;;;;2.72;1.70;;;;;;;15.38;39.78;99322.75;5071480;28;20098;-66
2023/02/26 06:53:42;;;;;;;3.58;1.80;;;;;;;15.35;39.62;99323.03;5071674;28;20049;-66
2023/02/26 06:56:11;;;;;;;2.38;1.60;;;;;;;15.34;39.69;99325.84;5071352;28;20064;-66
2023/02/26 06:58:40;;;;;;;3.42;1.83;;;;;;;15.30;39.88;99311.88;5071578;28;20049;-65
2023/02/26 07:01:08;;;;;;;2.55;1.58;;;;;;;15.29;39.76;99323.59;5071357;28;20049;-65
2023/02/26 07:03:36;;;;;;;2.55;1.50;;;;;;;15.26;39.85;99309.63;5071235;28;20451;-65
2023/02/26 07:06:07;;;;;;;2.70;1.65;;;;;;;15.25;39.89;99311.47;5071256;28;20040;-66
2023/02/26 07:08:54;;;;;;;2.30;1.50;;;;;;;15.22;39.85;99306.38;5071286;28;20120;-65
2023/02/26 07:11:24;;;;;;;2.60;1.52;;;;;;;15.22;39.86;99308.22;5071199;28;20812;-65
2023/02/26 07:13:52;;;;;;;3.70;2.00;;;;;;;15.21;39.95;99318.09;5071225;28;20056;-65
2023/02/26 07:16:21;;;;;;;3.03;1.60;;;;;;;15.18;39.96;99316.56;5071033;28;20079;-65
2023/02/26 07:18:49;;;;;;;2.92;1.70;;;;;;;15.15;40.14;99306.13;5071232;28;20044;-65
2023/02/26 07:21:17;;;;;;;2.67;1.60;;;;;;;15.16;40.00;99296.22;5071265;28;20486;-65
2023/02/26 07:23:45;;;;;;;2.78;1.70;;;;;;;15.15;40.01;99283.75;5054780;28;20445;-66
2023/02/26 07:26:13;;;;;;;2.67;1.52;;;;;;;15.11;40.18;99290.41;5071256;28;20389;-67
2023/02/26 07:28:43;;;;;;;2.13;1.50;;;;;;;15.11;40.15;99293.09;5071094;28;20493;-67
2023/02/26 07:31:11;;;;;;;2.78;1.60;;;;;;;15.09;40.20;99303.16;5070643;28;20051;-66
2023/02/26 07:33:40;;;;;;;2.83;1.63;;;;;;;15.08;40.06;99305.00;5072066;28;20185;-66
2023/02/26 07:36:08;;;;;;;2.47;1.45;;;;;;;15.08;40.25;99298.78;5071268;28;20044;-66
2023/02/26 07:38:36;;;;;;;2.53;1.60;;;;;;;15.06;40.22;99285.50;5074497;28;20114;-65
2023/02/26 07:41:04;;;;;;;2.10;1.52;;;;;;;15.05;40.08;99299.03;5074856;28;20447;-66
2023/02/26 07:43:32;;;;;;;2.60;1.55;;;;;;;15.04;40.24;99324.19;5074669;28;20131;-65
2023/02/26 07:46:02;;;;;;;2.05;1.45;;;;;;;15.03;40.26;99330.56;5074824;28;20041;-65
2023/02/26 07:48:30;;;;;;;2.60;1.52;;;;;;;15.03;40.35;99311.78;5074620;28;20036;-65
2023/02/26 07:50:58;;;;;;;2.55;1.63;;;;;;;15.00;40.21;99329.03;5074663;28;20079;-67
2023/02/26 07:53:26;;;;;;;2.30;1.45;;;;;;;14.99;40.46;99316.59;5074378;28;20051;-67
2023/02/26 07:55:55;;;;;;;2.15;1.40;;;;;;;14.96;39.94;99326.75;5074423;28;20049;-65
2023/02/26 07:58:23;;;;;;;2.00;1.20;;;;;;;14.97;40.43;99328.47;5074384;28;20051;-67
2023/02/26 08:00:51;;;;;;;2.38;1.70;;;;;;;14.94;40.34;99318.00;5074469;28;20090;-66
2023/02/26 08:03:21;;;;;;;2.40;1.50;;;;;;;14.96;40.50;99321.38;5074196;28;20170;-65
2023/02/26 08:05:49;;;;;;;1.73;1.30;;;;;;;14.95;40.56;99330.44;5070971;28;20058;-65
2023/02/26 08:08:21;;;;;;;2.33;1.48;;;;;;;14.93;40.47;99327.88;5073306;28;20040;-65
2023/02/26 08:10:53;;;;;;;2.65;1.60;;;;;;;14.93;40.39;99322.53;5067151;28;20067;-66
2023/02/26 08:13:21;;;;;;;3.20;1.83;;;;;;;14.89;40.54;99324.66;5074073;28;20048;-65
2023/02/26 08:15:49;;;;;;;2.78;1.60;;;;;;;14.90;40.45;99322.81;5073828;28;21367;-65
2023/02/26 08:18:17;;;;;;;3.13;1.70;;;;;;;14.89;40.31;99327.34;5073943;28;20410;-66
2023/02/26 08:20:47;;;;;;;2.38;1.40;;;;;;;14.89;40.56;99321.97;5074043;28;20108;-66
2023/02/26 08:23:15;;;;;;;2.47;1.60;;;;;;;14.89;40.52;99321.13;5074059;28;20041;-65
2023/02/26 08:25:44;;;;;;;2.63;1.70;;;;;;;14.87;40.54;99337.38;5073711;28;20508;-65
2023/02/26 08:28:12;;;;;;;2.75;1.70;;;;;;;14.87;40.53;99345.44;5071824;28;20045;-66
2023/02/26 08:30:41;;;;;;;2.97;1.70;;;;;;;14.87;40.60;99350.81;5072557;28;20049;-65
2023/02/26 08:33:09;;;;;;;3.25;1.70;;;;;;;14.84;40.63;99350.22;5084387;28;20044;-65
2023/02/26 08:35:39;;;;;;;2.97;1.52;;;;;;;14.82;40.83;99331.56;5073924;28;20044;-65
2023/02/26 08:38:09;;;;;;;2.10;1.45;;;;;;;14.83;40.80;99338.63;5071087;28;20053;-65
2023/02/26 08:40:37;;;;;;;2.35;1.60;;;;;;;14.81;40.67;99339.78;5073701;28;20044;-65
2023/02/26 08:43:05;;;;;;;2.25;1.55;;;;;;;14.81;40.75;99350.50;5073408;28;20044;-64
2023/02/26 08:45:33;;;;;;;3.22;1.80;;;;;;;14.82;40.84;99361.09;5073986;28;20075;-64
2023/02/26 08:48:01;;;;;;;2.67;1.73;;;;;;;14.81;40.76;99348.66;5072908;28;20060;-65
2023/02/26 08:50:29;;;;;;;3.22;1.85;;;;;;;14.81;40.79;99356.72;5073938;28;20147;-65
2023/02/26 08:52:57;;;;;;;2.97;1.58;;;;;;;14.79;40.76;99360.56;5073437;28;20067;-64
2023/02/26 08:55:27;;;;;;;2.88;1.85;;;;;;;14.78;40.84;99373.13;5070763;28;20033;-65
2023/02/26 08:57:55;;;;;;;2.33;1.67;;;;;;;14.80;40.77;99373.81;5070243;28;20045;-65
2023/02/26 09:00:24;;;;;;;2.47;1.67;;;;;;;14.79;40.89;99372.13;5072589;28;20044;-64
2023/02/26 09:02:52;;;;;;;2.97;1.70;;;;;;;14.79;40.88;99380.19;5070235;28;20041;-65
2023/02/26 09:05:20;;;;;;;2.58;1.42;;;;;;;14.79;40.83;99390.06;5073204;28;20596;-65
2023/02/26 09:07:48;;;;;;;3.10;1.80;;;;;;;14.77;40.96;99386.69;5073786;28;20161;-65
2023/02/26 09:10:17;;;;;;;2.65;1.60;;;;;;;14.78;40.98;99385.69;5073343;28;20085;-66
2023/02/26 09:12:47;;;;;;;3.22;1.80;;;;;;;14.77;40.72;99386.69;5073393;28;20068;-65
2023/02/26 09:15:15;;;;;;;3.22;1.80;;;;;;;14.74;40.88;99382.44;5072825;28;20067;-65
2023/02/26 09:17:43;;;;;;;4.47;1.70;;;;;;;14.75;40.86;99386.81;5072994;28;20052;-66
2023/02/26 09:20:16;;;;;;;2.50;1.70;;;;;;;14.77;40.88;99384.00;5072925;28;20045;-65
2023/02/26 09:22:44;;;;;;;2.53;1.60;;;;;;;14.78;41.00;99391.06;5072901;28;20071;-65
2023/02/26 09:25:13;;;;;;;3.25;1.75;;;;;;;14.78;40.95;99399.97;5073019;28;20127;-65
2023/02/26 09:27:42;;;;;;;3.85;1.90;;;;;;;14.77;40.95;99398.28;5073158;28;20044;-64
2023/02/26 09:30:13;;;;;;;2.70;1.70;;;;;;;14.74;40.97;99395.84;5072874;28;20094;-65
2023/02/26 09:32:41;;;;;;;2.80;1.67;;;;;;;14.77;41.15;99403.66;5072977;28;20052;-65
2023/02/26 09:35:10;;;;;;;2.45;1.50;;;;;;;14.75;41.14;99394.84;5073135;28;20067;-64
2023/02/26 09:37:39;;;;;;;2.22;1.50;;;;;;;14.76;41.07;99395.69;5072418;28;20405;-66
2023/02/26 09:40:20;;;;;;;2.63;1.70;;;;;;;14.77;41.17;99410.84;5072623;28;20504;-65
2023/02/26 09:43:02;;;;;;;2.75;1.70;;;;;;;14.76;41.17;99407.28;5072661;28;20051;-65
2023/02/26 09:45:36;;;;;;;2.70;1.67;;;;;;;14.77;41.16;99410.84;5072615;28;20051;-65
2023/02/26 09:48:06;;;;;;;3.38;1.70;;;;;;;14.78;41.46;99410.72;5072671;28;20143;-64
2023/02/26 09:50:41;;;;;;;2.45;1.50;;;;;;;14.76;41.09;99414.50;5072594;28;20082;-64
2023/02/26 09:53:15;;;;;;;2.45;1.40;;;;;;;14.77;41.01;99419.75;5072392;28;20071;-64
2023/02/26 09:55:46;;;;;;;2.35;1.38;;;;;;;14.78;41.20;99417.91;5072334;28;20051;-65
2023/02/26 09:58:21;;;;;;;3.50;1.73;;;;;;;14.78;41.32;99416.06;5063516;28;20134;-64
2023/02/26 10:01:01;;;;;;;3.58;1.55;;;;;;;14.77;41.17;99414.38;5071510;28;20075;-65
2023/02/26 10:03:34;;;;;;;2.60;1.60;;;;;;;14.79;41.13;99409.72;5072400;28;20049;-66
2023/02/26 10:06:19;;;;;;;2.75;1.67;;;;;;;14.76;41.26;99412.66;5072157;28;20079;-66
2023/02/26 10:09:04;;;;;;;2.75;1.60;;;;;;;14.78;41.25;99421.44;5073468;28;20084;-65
2023/02/26 10:11:40;;;;;;;2.72;1.40;;;;;;;14.80;41.32;99432.03;5072318;28;20040;-65
2023/02/26 10:14:12;;;;;;;4.40;1.60;;;;;;;14.80;41.20;99438.25;5071961;28;20102;-67
2023/02/26 10:16:47;;;;;;;2.75;1.70;;;;;;;14.81;41.11;99448.00;5072150;28;20051;-64
2023/02/26 10:19:19;;;;;;;3.67;1.45;;;;;;;14.81;41.16;99457.91;5071931;28;20078;-68
2023/02/26 10:21:51;;;;;;;3.35;1.63;;;;;;;14.82;41.37;99465.81;5072616;28;20047;-64
2023/02/26 10:24:24;;;;;;;3.10;1.70;;;;;;;14.80;41.23;99470.47;5072228;28;20055;-64
2023/02/26 10:27:00;;;;;;;2.47;1.55;;;;;;;14.82;41.24;99470.31;5071915;28;20452;-68
2023/02/26 10:29:35;;;;;;;3.35;1.77;;;;;;;14.86;42.49;99477.97;5072414;28;20049;-68
2023/02/26 10:32:21;;;;;;;2.97;1.42;;;;;;;14.88;42.50;99486.75;5072378;28;20040;-67
2023/02/26 10:34:55;;;;;;;2.83;1.50;;;;;;;14.87;42.29;99485.03;5072308;28;20540;-66
2023/02/26 10:37:45;;;;;;;3.28;1.70;;;;;;;14.91;42.34;99484.75;5072080;28;20063;-66
2023/02/26 10:40:19;;;;;;;5.13;1.65;;;;;;;14.93;42.43;99498.91;5072065;28;20405;-67
2023/02/26 10:42:50;;;;;;;3.00;1.63;;;;;;;14.94;42.39;99495.22;5072076;28;20530;-67
2023/02/26 10:45:35;;;;;;;4.35;1.60;;;;;;;14.94;42.27;99500.59;5071851;28;20047;-68
2023/02/26 10:48:18;;;;;;;4.22;1.95;;;;;;;14.95;43.19;99500.44;5071851;28;20045;-69
2023/02/26 10:50:49;;;;;;;;;;;;;;;15.00;44.22;99505.41;5072303;28;20051;-68
2023/02/26 10:53:17;;;;;;;6.88;2.10;;;;;;;15.02;44.87;99504.28;5085373;28;20407;-68
2023/02/26 10:55:49;;;;;;;7.00;1.88;;;;;;;15.10;45.60;99507.13;5091951;28;20101;-69
2023/02/26 10:58:20;;;;;;;6.20;2.23;;;;;;;15.16;46.29;99506.59;5068583;28;20048;-68
2023/02/26 11:00:52;;;;;;;16.23;3.50;;;;;;;15.22;46.74;99509.69;5071691;28;20094;-66
2023/02/26 11:03:30;;;;;;;12.23;2.65;;;;;;;15.27;46.80;99519.03;5071306;28;20525;-67
2023/02/26 11:05:58;;;;;;;14.93;3.00;;;;;;;15.34;46.97;99513.94;5071615;28;20105;-69
2023/02/26 11:08:30;;;;;;;13.15;2.65;;;;;;;15.38;46.92;99526.09;5071280;28;20535;-67
2023/02/26 11:11:00;;;;;;;12.90;3.00;;;;;;;15.40;46.37;99516.91;5070702;28;20555;-68
2023/02/26 11:13:31;;;;;;;12.60;2.78;;;;;;;15.40;46.02;99519.59;5074941;28;20040;-68
2023/02/26 11:16:03;;;;;;;13.20;2.65;;;;;;;15.38;45.93;99512.69;5075070;28;20547;-67
2023/02/26 11:18:39;;;;;;;17.83;3.08;;;;;;;15.38;45.73;99516.22;5074813;28;20096;-67
2023/02/26 11:21:17;;;;;;;15.18;2.67;;;;;;;15.35;45.58;99519.19;5074687;28;20500;-68
2023/02/26 11:23:46;;;;;;;13.07;2.70;;;;;;;15.36;45.36;99515.50;5074511;28;20090;-68
2023/02/26 11:26:17;;;;;;;20.40;3.00;;;;;;;15.35;45.06;99516.50;5074898;28;20087;-68
2023/02/26 11:28:48;;;;;;;13.40;2.40;;;;;;;15.33;44.95;99515.78;5074634;28;20044;-68
2023/02/26 11:31:19;;;;;;;8.75;2.42;;;;;;;15.34;44.60;99524.69;5054613;28;20045;-68
2023/02/26 11:33:54;;;;;;;10.40;2.67;;;;;;;15.31;44.63;99525.81;5054629;28;20482;-67
2023/02/26 11:36:29;;;;;;;13.57;2.63;;;;;;;15.33;44.52;99531.03;5054632;28;20048;-67
2023/02/26 11:39:01;;;;;;;6.65;2.20;;;;;;;15.32;44.30;99529.34;5054202;28;20501;-67
2023/02/26 11:41:30;;;;;;;11.70;2.73;;;;;;;15.32;44.11;99538.25;5054504;28;20041;-68
2023/02/26 11:44:02;;;;;;;12.02;2.78;;;;;;;15.33;44.26;99537.25;5054346;28;20076;-67
2023/02/26 11:46:31;;;;;;;7.18;2.15;;;;;;;15.34;44.32;99535.41;5054847;28;20429;-67
2023/02/26 11:49:01;;;;;;;10.02;2.55;;;;;;;15.32;44.12;99524.81;5054207;28;20044;-68
2023/02/26 11:51:30;;;;;;;9.77;2.60;;;;;;;15.35;44.10;99532.63;5054227;28;20049;-68
2023/02/26 11:54:01;;;;;;;9.52;2.50;;;;;;;15.35;44.03;99527.25;5054684;28;20049;-71